Time;durP1;ratioP1;P1;durP2;ratioP2;P2;SDS_P1;SDS_P2;PMS_P1;PMS_P2;Temp;Humidity;BMP_temperature;BMP_pressure;BME280_temperature;BME280_humidity;BME280_pressure;Samples;Min_cycle;Max_cycle;Signal;HPM_P1;HPM_P2
2021/10/03 00:01:59;;;;;;;11.63;7.13;;;9.90;99.90;;;;;;4992112;28;20034;-65
2021/10/03 00:04:30;;;;;;;11.40;6.53;;;9.90;99.90;;;;;;4992233;28;20490;-65
2021/10/03 00:06:56;;;;;;;12.45;7.18;;;9.90;99.90;;;;;;4991774;28;20091;-66
2021/10/03 00:09:22;;;;;;;17.02;7.15;;;9.90;99.90;;;;;;4992352;28;20382;-66
2021/10/03 00:11:49;;;;;;;11.18;6.35;;;9.90;99.90;;;;;;4991825;28;20028;-66
2021/10/03 00:14:16;;;;;;;10.05;7.78;;;9.90;99.90;;;;;;4992016;28;20034;-66
2021/10/03 00:16:42;;;;;;;12.73;7.72;;;9.90;99.90;;;;;;4991758;28;20023;-66
2021/10/03 00:19:09;;;;;;;8.52;6.85;;;9.90;99.90;;;;;;4991810;28;20486;-66
2021/10/03 00:21:35;;;;;;;13.35;7.35;;;9.90;99.90;;;;;;4991976;28;20027;-66
2021/10/03 00:24:00;;;;;;;9.88;6.95;;;9.90;99.90;;;;;;4991907;28;20088;-66
2021/10/03 00:26:27;;;;;;;8.55;6.70;;;9.90;99.90;;;;;;4991760;28;20077;-66
2021/10/03 00:28:53;;;;;;;10.30;7.13;;;9.90;99.90;;;;;;4991486;28;20033;-66
2021/10/03 00:31:18;;;;;;;14.48;7.10;;;9.90;99.90;;;;;;4991756;28;20030;-66
2021/10/03 00:33:44;;;;;;;11.48;7.00;;;9.90;99.90;;;;;;4991492;28;20583;-66
2021/10/03 00:36:10;;;;;;;11.40;6.55;;;9.90;99.90;;;;;;4991502;28;20054;-66
2021/10/03 00:38:35;;;;;;;9.15;6.35;;;9.90;99.90;;;;;;4991391;28;20417;-66
2021/10/03 00:41:01;;;;;;;14.38;7.40;;;9.90;99.90;;;;;;4991519;28;20472;-66
2021/10/03 00:43:27;;;;;;;12.65;7.32;;;9.90;99.90;;;;;;4992081;28;20018;-66
2021/10/03 00:45:53;;;;;;;9.43;6.95;;;9.90;99.90;;;;;;4991210;28;20035;-66
2021/10/03 00:48:19;;;;;;;11.05;7.20;;;9.90;99.90;;;;;;4991623;28;20109;-66
2021/10/03 00:50:47;;;;;;;14.38;7.40;;;9.90;99.90;;;;;;4991241;28;20045;-66
2021/10/03 00:53:13;;;;;;;13.10;6.63;;;9.90;99.90;;;;;;4991419;28;20543;-66
2021/10/03 00:55:40;;;;;;;13.63;6.47;;;9.90;99.90;;;;;;4991114;28;20030;-66
2021/10/03 00:58:08;;;;;;;10.82;6.80;;;9.80;99.90;;;;;;4991199;28;20536;-66
2021/10/03 01:00:35;;;;;;;13.73;7.18;;;9.80;99.90;;;;;;4991415;28;20650;-66
2021/10/03 01:03:03;;;;;;;13.10;7.25;;;9.80;99.90;;;;;;4991050;28;20037;-66
2021/10/03 01:05:29;;;;;;;10.73;7.05;;;9.80;99.90;;;;;;4991061;28;20125;-66
2021/10/03 01:07:54;;;;;;;9.63;6.72;;;9.80;99.90;;;;;;4991209;28;20109;-66
2021/10/03 01:10:23;;;;;;;10.27;7.65;;;9.80;99.90;;;;;;4991096;28;20034;-67
2021/10/03 01:13:02;;;;;;;14.73;7.28;;;9.80;99.90;;;;;;4990919;28;20465;-67
2021/10/03 01:15:30;;;;;;;14.48;7.70;;;9.80;99.90;;;;;;4991284;28;20042;-67
2021/10/03 01:17:56;;;;;;;10.20;7.40;;;9.70;99.90;;;;;;4991029;28;20027;-65
2021/10/03 01:20:22;;;;;;;12.50;7.03;;;9.70;99.90;;;;;;4990884;28;20505;-65
2021/10/03 01:22:49;;;;;;;12.63;7.50;;;9.80;99.90;;;;;;4990878;28;20029;-66
2021/10/03 01:25:15;;;;;;;10.65;7.20;;;9.70;99.90;;;;;;4990825;28;20061;-65
2021/10/03 01:27:41;;;;;;;8.98;7.20;;;9.70;99.90;;;;;;4990969;28;20377;-65
2021/10/03 01:30:11;;;;;;;12.45;7.90;;;9.70;99.90;;;;;;4990760;28;20027;-65
2021/10/03 01:32:37;;;;;;;10.30;7.72;;;9.70;99.90;;;;;;4990839;28;20030;-66
2021/10/03 01:35:03;;;;;;;10.70;8.02;;;9.70;99.90;;;;;;4990564;28;20413;-67
2021/10/03 01:37:29;;;;;;;17.17;8.00;;;9.70;99.90;;;;;;4990705;28;20035;-67
2021/10/03 01:39:56;;;;;;;15.57;7.47;;;9.70;99.90;;;;;;4990739;28;20022;-67
2021/10/03 01:42:21;;;;;;;13.60;8.55;;;9.70;99.90;;;;;;4990927;28;20451;-67
2021/10/03 01:44:47;;;;;;;15.63;8.60;;;9.70;99.90;;;;;;4990590;28;20053;-67
2021/10/03 01:47:13;;;;;;;13.02;8.23;;;9.70;99.90;;;;;;4990797;28;20382;-67
2021/10/03 01:49:39;;;;;;;11.50;8.57;;;9.70;99.90;;;;;;4990342;28;20033;-67
2021/10/03 01:52:05;;;;;;;11.88;7.95;;;9.70;99.90;;;;;;4990479;28;20023;-66
2021/10/03 01:54:33;;;;;;;10.00;7.82;;;9.70;99.90;;;;;;4990615;28;20095;-66
2021/10/03 01:57:00;;;;;;;12.30;7.90;;;9.70;99.90;;;;;;4990803;28;20031;-66
2021/10/03 01:59:26;;;;;;;11.98;7.70;;;9.70;99.90;;;;;;4989736;28;20155;-66
2021/10/03 02:01:53;;;;;;;11.30;7.63;;;9.70;99.90;;;;;;4990227;28;20566;-66
2021/10/03 02:04:22;;;;;;;13.52;8.45;;;9.70;99.90;;;;;;4990129;28;20066;-66
2021/10/03 02:06:53;;;;;;;12.38;8.32;;;9.70;99.90;;;;;;4990037;28;20113;-66
2021/10/03 02:09:20;;;;;;;12.65;7.80;;;9.70;99.90;;;;;;4990488;28;20056;-66
2021/10/03 02:11:49;;;;;;;11.48;8.13;;;9.70;99.90;;;;;;4990161;28;20038;-65
2021/10/03 02:14:17;;;;;;;15.45;8.15;;;9.80;99.90;;;;;;4990135;28;20030;-65
2021/10/03 02:16:44;;;;;;;14.57;8.27;;;9.80;99.90;;;;;;4989996;28;20027;-65
2021/10/03 02:19:10;;;;;;;11.55;7.93;;;9.80;99.90;;;;;;4990099;28;20109;-65
2021/10/03 02:21:36;;;;;;;12.63;8.32;;;9.80;99.90;;;;;;4989978;28;20121;-66
2021/10/03 02:55:34;;;;;;;19.80;8.45;;;10.00;99.90;;;;;;4989166;28;20081;-66
2021/10/03 02:58:00;;;;;;;20.52;8.25;;;9.90;99.90;;;;;;4989882;28;20027;-66
2021/10/03 03:00:26;;;;;;;9.27;7.78;;;9.90;99.90;;;;;;4989649;28;20443;-65
2021/10/03 03:02:51;;;;;;;11.13;7.68;;;9.90;99.90;;;;;;4989845;28;20058;-65
2021/10/03 03:05:17;;;;;;;17.08;8.52;;;9.90;99.90;;;;;;4989647;28;20088;-66
2021/10/03 03:07:43;;;;;;;12.18;8.57;;;9.90;99.90;;;;;;4989288;28;20068;-66
2021/10/03 03:10:09;;;;;;;12.00;7.40;;;9.90;99.90;;;;;;4991442;28;20087;-65
2021/10/03 03:12:36;;;;;;;15.35;8.63;;;9.90;99.90;;;;;;4992985;28;20023;-65
2021/10/03 03:15:05;;;;;;;12.00;7.93;;;9.90;99.90;;;;;;4993096;28;20393;-66
2021/10/03 03:17:30;;;;;;;13.48;8.23;;;9.80;99.90;;;;;;4992803;28;20041;-66
2021/10/03 03:19:56;;;;;;;15.07;9.15;;;9.80;99.90;;;;;;4992994;28;20031;-66
2021/10/03 03:22:22;;;;;;;16.35;8.57;;;9.80;99.90;;;;;;4992920;28;20037;-66
2021/10/03 03:24:48;;;;;;;13.68;8.15;;;9.80;99.90;;;;;;4992582;28;20382;-66
2021/10/03 03:27:13;;;;;;;14.10;8.60;;;9.80;99.90;;;;;;4992997;28;20062;-65
2021/10/03 03:29:39;;;;;;;17.98;8.98;;;9.80;99.90;;;;;;4992728;28;20026;-66
2021/10/03 03:32:05;;;;;;;13.50;8.88;;;9.80;99.90;;;;;;4992665;28;20029;-66
2021/10/03 03:34:31;;;;;;;16.70;8.93;;;9.70;99.90;;;;;;4992298;28;20029;-65
2021/10/03 03:36:57;;;;;;;16.27;8.70;;;9.70;99.90;;;;;;4992559;28;20031;-66
2021/10/03 03:39:23;;;;;;;13.77;8.57;;;9.70;99.90;;;;;;4992581;28;20022;-66
2021/10/03 03:41:49;;;;;;;18.27;9.18;;;9.70;99.90;;;;;;4992480;28;20087;-65
2021/10/03 03:44:15;;;;;;;13.73;9.40;;;9.70;99.90;;;;;;4992570;28;20497;-66
2021/10/03 03:46:40;;;;;;;11.75;8.43;;;9.60;99.90;;;;;;4992316;28;20573;-65
2021/10/03 03:49:06;;;;;;;12.88;9.10;;;9.60;99.90;;;;;;4992459;28;20049;-65
2021/10/03 03:51:32;;;;;;;14.40;8.93;;;9.60;99.90;;;;;;4992495;28;20061;-66
2021/10/03 03:53:58;;;;;;;13.40;9.13;;;9.60;99.90;;;;;;4992343;28;20053;-66
2021/10/03 03:56:23;;;;;;;14.55;8.80;;;9.60;99.90;;;;;;4991981;28;20478;-66
2021/10/03 03:58:49;;;;;;;12.20;9.05;;;9.60;99.90;;;;;;4992215;28;20034;-66
2021/10/03 04:01:15;;;;;;;12.32;8.95;;;9.60;99.90;;;;;;4992189;28;20426;-66
2021/10/03 04:03:42;;;;;;;12.90;8.63;;;9.60;99.90;;;;;;4992127;28;20054;-66
2021/10/03 04:06:08;;;;;;;18.00;9.23;;;9.50;99.90;;;;;;4992036;28;20039;-66
2021/10/03 04:08:33;;;;;;;16.60;8.57;;;9.50;99.90;;;;;;4991994;28;20054;-66
2021/10/03 04:10:59;;;;;;;11.18;8.35;;;9.50;99.90;;;;;;4992333;28;20042;-66
2021/10/03 04:13:25;;;;;;;14.73;8.90;;;9.50;99.90;;;;;;4991979;28;20393;-66
2021/10/03 04:15:50;;;;;;;14.40;9.50;;;9.50;99.90;;;;;;4992165;28;20027;-66
2021/10/03 04:18:16;;;;;;;13.40;8.93;;;9.50;99.90;;;;;;4992039;28;20070;-66
2021/10/03 04:20:42;;;;;;;13.25;9.45;;;9.50;99.90;;;;;;4991341;28;20069;-66
2021/10/03 04:23:08;;;;;;;15.70;8.52;;;9.50;99.90;;;;;;4991983;28;20057;-66
2021/10/03 04:25:35;;;;;;;13.93;9.80;;;9.50;99.90;;;;;;4991643;28;20532;-66
2021/10/03 04:28:01;;;;;;;13.70;8.75;;;9.50;99.90;;;;;;4992067;28;20104;-66
2021/10/03 04:30:27;;;;;;;14.65;9.57;;;9.40;99.90;;;;;;4991535;28;20405;-67
2021/10/03 04:32:53;;;;;;;14.73;8.52;;;9.40;99.90;;;;;;4991713;28;20023;-68
2021/10/03 04:35:19;;;;;;;12.32;9.70;;;9.50;99.90;;;;;;4991878;28;20049;-69
2021/10/03 04:37:45;;;;;;;13.02;10.07;;;9.40;99.90;;;;;;4991515;28;20458;-67
2021/10/03 04:40:11;;;;;;;12.90;7.28;;;9.50;99.90;;;;;;4991440;28;20035;-68
2021/10/03 04:42:37;;;;;;;14.35;8.65;;;10.10;99.90;;;;;;4990582;28;20107;-73
2021/10/03 04:45:03;;;;;;;14.52;8.73;;;10.70;99.90;;;;;;4990144;28;20039;-72
2021/10/03 04:47:29;;;;;;;12.25;8.68;;;10.40;99.90;;;;;;4991118;28;20041;-71
2021/10/03 04:49:56;;;;;;;14.70;8.93;;;10.20;99.90;;;;;;4987257;28;20039;-72
2021/10/03 04:52:25;;;;;;;13.75;9.18;;;10.00;99.90;;;;;;4971983;28;20061;-71
2021/10/03 04:54:52;;;;;;;14.48;9.88;;;9.90;99.90;;;;;;4977120;28;20054;-72
2021/10/03 04:57:18;;;;;;;14.07;8.88;;;9.80;99.90;;;;;;4981583;28;20061;-68
2021/10/03 04:59:44;;;;;;;13.13;9.52;;;9.80;99.90;;;;;;4972616;28;20073;-68
2021/10/03 05:02:09;;;;;;;15.88;10.05;;;9.80;99.90;;;;;;4988679;28;20710;-72
2021/10/03 05:04:35;;;;;;;15.90;9.45;;;9.70;99.90;;;;;;4974644;28;20502;-72
2021/10/03 05:07:01;;;;;;;15.95;9.88;;;9.70;99.90;;;;;;4971702;28;20041;-70
2021/10/03 05:09:27;;;;;;;13.43;9.35;;;9.70;99.90;;;;;;4971560;28;20498;-70
2021/10/03 05:11:53;;;;;;;14.23;9.57;;;9.70;99.90;;;;;;4971814;28;20037;-70
2021/10/03 05:14:19;;;;;;;13.48;9.70;;;9.70;99.90;;;;;;4972014;28;20043;-70
2021/10/03 05:16:45;;;;;;;15.23;9.80;;;9.70;99.90;;;;;;4971342;28;20023;-70
2021/10/03 05:19:10;;;;;;;11.57;9.65;;;9.60;99.90;;;;;;4971938;28;20027;-70
2021/10/03 05:21:36;;;;;;;18.85;10.23;;;9.70;99.90;;;;;;4971543;28;20506;-70
2021/10/03 05:24:03;;;;;;;15.13;10.30;;;9.70;99.90;;;;;;4971819;28;20030;-70
2021/10/03 05:26:29;;;;;;;13.98;10.50;;;9.70;99.90;;;;;;4971444;28;20030;-70
2021/10/03 05:28:54;;;;;;;14.63;10.43;;;9.70;99.90;;;;;;4971521;28;20418;-69
2021/10/03 05:31:20;;;;;;;13.15;10.23;;;9.70;99.90;;;;;;4971429;28;20125;-72
2021/10/03 05:33:46;;;;;;;19.10;10.60;;;9.70;99.90;;;;;;4970529;28;20106;-72
2021/10/03 05:36:12;;;;;;;15.32;10.63;;;9.70;99.90;;;;;;4971599;28;20386;-72
2021/10/03 05:38:38;;;;;;;14.02;10.75;;;9.70;99.90;;;;;;4971383;28;20496;-72
2021/10/03 05:41:03;;;;;;;16.58;9.75;;;9.70;99.90;;;;;;4971358;28;20030;-72
2021/10/03 05:43:29;;;;;;;17.25;9.77;;;9.70;99.90;;;;;;4971393;28;20382;-71
2021/10/03 05:45:55;;;;;;;14.93;9.95;;;9.80;99.90;;;;;;4971351;28;20425;-71
2021/10/03 05:48:21;;;;;;;11.77;9.85;;;9.80;99.90;;;;;;4971537;28;20532;-67
2021/10/03 05:50:47;;;;;;;17.15;10.40;;;9.80;99.90;;;;;;4971123;28;20092;-66
2021/10/03 05:53:13;;;;;;;15.38;10.35;;;9.80;99.90;;;;;;4971303;28;20027;-66
2021/10/03 05:55:39;;;;;;;14.75;10.63;;;9.80;99.90;;;;;;4974710;28;20491;-66
2021/10/03 05:58:05;;;;;;;14.25;10.80;;;9.80;99.90;;;;;;4971130;28;20035;-66
2021/10/03 06:00:31;;;;;;;15.07;10.70;;;9.80;99.90;;;;;;4969552;28;20117;-66
2021/10/03 06:02:57;;;;;;;13.65;10.30;;;9.80;99.90;;;;;;4971076;28;20039;-66
2021/10/03 06:05:23;;;;;;;14.32;10.95;;;9.80;99.90;;;;;;4970891;28;20035;-66
2021/10/03 06:07:49;;;;;;;16.45;11.20;;;9.80;99.90;;;;;;4970902;28;20763;-66
2021/10/03 06:10:14;;;;;;;13.15;10.30;;;9.80;99.90;;;;;;4970926;28;20027;-66
2021/10/03 06:12:40;;;;;;;16.23;10.40;;;9.80;99.90;;;;;;4970886;28;20023;-65
2021/10/03 06:15:09;;;;;;;14.63;10.65;;;9.80;99.90;;;;;;4970862;28;20041;-65
2021/10/03 06:17:35;;;;;;;17.17;10.98;;;9.80;99.90;;;;;;4970621;28;20030;-65
2021/10/03 06:20:00;;;;;;;16.00;11.48;;;9.80;99.90;;;;;;4971077;28;20038;-64
2021/10/03 06:22:26;;;;;;;14.95;9.75;;;9.90;99.90;;;;;;4970777;28;20018;-68
2021/10/03 06:24:52;;;;;;;18.52;10.50;;;9.90;99.90;;;;;;4970769;28;20035;-68
2021/10/03 06:27:18;;;;;;;16.95;10.27;;;9.80;99.90;;;;;;4970699;28;20444;-68
2021/10/03 06:29:45;;;;;;;15.18;10.77;;;9.90;99.90;;;;;;4970675;28;20019;-67
2021/10/03 06:32:11;;;;;;;15.98;10.32;;;9.90;99.90;;;;;;4970890;28;20096;-68
2021/10/03 06:34:37;;;;;;;16.85;11.27;;;9.90;99.90;;;;;;4970426;28;20054;-68
2021/10/03 06:37:03;;;;;;;16.77;10.85;;;9.90;99.90;;;;;;4977262;28;20663;-67
2021/10/03 06:39:28;;;;;;;15.02;10.23;;;9.90;99.90;;;;;;4987715;28;20019;-68
2021/10/03 06:41:54;;;;;;;18.85;11.15;;;9.90;99.90;;;;;;4970083;28;20037;-67
2021/10/03 06:44:20;;;;;;;14.38;10.65;;;9.90;99.90;;;;;;4978332;28;20133;-68
2021/10/03 06:46:46;;;;;;;15.13;10.63;;;9.90;99.90;;;;;;4989814;28;20087;-68
2021/10/03 06:49:12;;;;;;;19.42;11.02;;;9.90;99.90;;;;;;4989781;28;20512;-68
2021/10/03 06:51:42;;;;;;;17.55;11.65;;;9.90;99.90;;;;;;4989496;28;20049;-68
2021/10/03 06:54:08;;;;;;;19.52;11.48;;;9.90;99.90;;;;;;4974302;28;20046;-68
2021/10/03 06:56:34;;;;;;;15.25;10.25;;;9.90;99.90;;;;;;4970096;28;20574;-68
2021/10/03 06:59:00;;;;;;;15.75;10.70;;;9.90;99.90;;;;;;4970552;28;20106;-68
2021/10/03 07:01:26;;;;;;;15.52;11.27;;;9.90;99.90;;;;;;4972785;28;20374;-69
2021/10/03 07:03:51;;;;;;;16.55;10.50;;;9.90;99.90;;;;;;4977182;28;20027;-68
2021/10/03 07:06:17;;;;;;;14.55;10.38;;;9.90;99.90;;;;;;4978261;28;20122;-68
2021/10/03 07:08:43;;;;;;;15.10;10.23;;;9.90;99.90;;;;;;4970049;28;20397;-68
2021/10/03 07:11:09;;;;;;;16.08;10.63;;;9.90;99.90;;;;;;4969977;28;20478;-68
2021/10/03 07:13:35;;;;;;;14.55;10.02;;;9.90;99.90;;;;;;4969594;28;20038;-68
2021/10/03 07:16:00;;;;;;;16.17;11.32;;;9.90;99.90;;;;;;4970042;28;20062;-69
2021/10/03 07:18:26;;;;;;;15.80;10.85;;;9.90;99.90;;;;;;4969707;28;20261;-70
2021/10/03 07:20:52;;;;;;;25.63;10.88;;;9.90;99.90;;;;;;4978922;28;20038;-67
2021/10/03 07:23:18;;;;;;;14.85;10.43;;;10.20;99.90;;;;;;4986888;28;20089;-69
2021/10/03 07:25:44;;;;;;;15.70;11.18;;;10.20;99.90;;;;;;4969650;28;20099;-69
2021/10/03 07:28:09;;;;;;;18.48;12.15;;;10.10;99.90;;;;;;4968477;28;20068;-69
2021/10/03 07:30:35;;;;;;;18.85;11.13;;;10.10;99.90;;;;;;4969705;28;20030;-69
2021/10/03 07:33:02;;;;;;;16.90;11.15;;;10.00;99.90;;;;;;4969690;28;20428;-69
2021/10/03 07:35:28;;;;;;;16.27;11.00;;;10.00;99.90;;;;;;4969896;28;20031;-69
2021/10/03 07:37:54;;;;;;;17.85;10.82;;;10.00;99.90;;;;;;4969472;28;20023;-69
2021/10/03 07:40:20;;;;;;;16.33;10.82;;;10.00;99.90;;;;;;4969360;28;20496;-69
2021/10/03 07:42:46;;;;;;;16.08;10.60;;;10.00;99.90;;;;;;4969335;28;20026;-69
2021/10/03 07:45:12;;;;;;;15.18;10.98;;;10.00;99.90;;;;;;4969322;28;20031;-69
2021/10/03 07:47:38;;;;;;;21.85;11.43;;;10.00;99.90;;;;;;4969463;28;20141;-69
2021/10/03 07:50:04;;;;;;;16.98;10.18;;;10.00;99.90;;;;;;4969305;28;20156;-69
2021/10/03 07:52:30;;;;;;;14.55;11.05;;;10.10;99.90;;;;;;4969200;28;20033;-68
2021/10/03 07:54:56;;;;;;;23.58;12.95;;;10.10;99.90;;;;;;4970397;28;20047;-69
2021/10/03 07:57:22;;;;;;;18.02;12.18;;;10.10;99.90;;;;;;4990770;28;20456;-69
2021/10/03 07:59:47;;;;;;;24.38;13.02;;;10.00;99.90;;;;;;4991993;28;20039;-69
2021/10/03 08:02:13;;;;;;;20.63;12.63;;;9.90;99.90;;;;;;4991305;28;20023;-67
2021/10/03 08:04:39;;;;;;;18.30;13.30;;;9.80;99.90;;;;;;4992119;28;20035;-67
2021/10/03 08:07:05;;;;;;;19.83;12.95;;;9.80;99.90;;;;;;4992476;28;20464;-68
2021/10/03 08:09:30;;;;;;;18.90;11.95;;;10.30;99.90;;;;;;4992296;28;20359;-68
2021/10/03 08:11:56;;;;;;;22.65;12.98;;;10.30;99.90;;;;;;4992215;28;20034;-69
2021/10/03 08:14:22;;;;;;;17.75;10.70;;;10.10;99.90;;;;;;4992126;28;20026;-68
2021/10/03 08:16:49;;;;;;;19.40;11.45;;;10.00;99.90;;;;;;4991772;28;20026;-69
2021/10/03 08:19:14;;;;;;;19.65;12.48;;;9.90;99.90;;;;;;4992064;28;20084;-68
2021/10/03 08:21:40;;;;;;;15.63;10.10;;;9.90;99.90;;;;;;4991778;28;20462;-70
2021/10/03 08:24:06;;;;;;;16.02;11.15;;;10.10;99.90;;;;;;4992234;28;20027;-73
2021/10/03 08:26:32;;;;;;;17.50;10.68;;;10.40;99.90;;;;;;4992001;28;20034;-69
2021/10/03 08:28:58;;;;;;;19.33;10.65;;;10.30;99.90;;;;;;4991867;28;20027;-71
2021/10/03 08:31:24;;;;;;;15.63;11.45;;;10.30;99.90;;;;;;4990682;28;20382;-71
2021/10/03 08:33:50;;;;;;;12.30;10.05;;;10.10;99.90;;;;;;4991812;28;20031;-69
2021/10/03 08:36:16;;;;;;;16.58;11.05;;;10.00;99.90;;;;;;4991761;28;20022;-69
2021/10/03 08:38:42;;;;;;;13.10;10.07;;;10.10;99.90;;;;;;4991660;28;20033;-70
2021/10/03 08:41:07;;;;;;;14.82;11.10;;;10.10;99.90;;;;;;4991960;28;20111;-70
2021/10/03 08:43:33;;;;;;;14.95;10.18;;;10.00;99.90;;;;;;4992006;28;20026;-70
2021/10/03 08:45:59;;;;;;;15.30;9.27;;;9.90;99.90;;;;;;4991372;28;20062;-66
2021/10/03 08:48:27;;;;;;;18.20;9.75;;;10.00;99.90;;;;;;4991529;28;20527;-67
2021/10/03 08:50:53;;;;;;;13.10;9.45;;;10.80;99.90;;;;;;4991432;28;20022;-68
2021/10/03 08:53:19;;;;;;;13.55;9.57;;;10.70;99.90;;;;;;4991411;28;20030;-69
2021/10/03 08:55:45;;;;;;;18.35;11.15;;;10.50;99.90;;;;;;4991683;28;20027;-66
2021/10/03 08:58:11;;;;;;;14.13;9.52;;;10.30;99.90;;;;;;4991665;28;20040;-67
2021/10/03 09:00:50;;;;;;;13.10;9.48;;;10.20;99.90;;;;;;4991298;28;20655;-68
2021/10/03 09:03:17;;;;;;;13.95;10.07;;;10.00;99.90;;;;;;4991691;28;20026;-71
2021/10/03 09:05:54;;;;;;;16.70;10.60;;;10.00;99.90;;;;;;4989789;28;20080;-69
2021/10/03 09:08:29;;;;;;;15.25;10.43;;;9.90;99.90;;;;;;4991313;28;20118;-69
2021/10/03 09:10:57;;;;;;;15.93;11.23;;;9.80;99.90;;;;;;4991144;28;20030;-70
2021/10/03 09:13:50;;;;;;;13.82;10.38;;;9.80;99.90;;;;;;4991551;28;20034;-70
2021/10/03 09:16:33;;;;;;;15.63;10.98;;;9.80;99.90;;;;;;4991054;28;20026;-69
2021/10/03 09:19:10;;;;;;;14.88;10.02;;;9.80;99.90;;;;;;4991065;28;20031;-69
2021/10/03 09:21:40;;;;;;;15.80;10.35;;;9.80;99.90;;;;;;4991056;28;20026;-69
2021/10/03 09:24:11;;;;;;;;;;;9.70;99.90;;;;;;4991549;28;20121;-69
2021/10/03 09:26:38;;;;;;;17.30;9.77;;;9.80;99.90;;;;;;4990950;28;19910;-69
2021/10/03 09:29:22;;;;;;;15.80;9.68;;;9.80;99.90;;;;;;4991039;28;20386;-69
2021/10/03 09:32:11;;;;;;;13.10;9.90;;;9.80;99.90;;;;;;4990701;28;20474;-69
2021/10/03 09:34:39;;;;;;;15.35;10.25;;;9.80;99.90;;;;;;4990977;28;20037;-69
2021/10/03 09:37:35;;;;;;;15.52;10.27;;;9.90;99.90;;;;;;4991069;28;20049;-70
2021/10/03 09:40:13;;;;;;;16.98;9.50;;;9.90;99.90;;;;;;4974440;28;20385;-67
2021/10/03 09:42:40;;;;;;;13.13;9.43;;;10.00;99.90;;;;;;4990690;28;20389;-67
2021/10/03 09:45:08;;;;;;;14.82;8.95;;;10.10;99.90;;;;;;4990696;28;20105;-68
2021/10/03 09:47:35;;;;;;;14.93;9.98;;;10.30;99.90;;;;;;4989447;28;20034;-68
2021/10/03 09:50:03;;;;;;;14.52;8.38;;;10.30;99.90;;;;;;4990876;28;20420;-68
2021/10/03 09:52:29;;;;;;;13.13;8.63;;;10.30;99.90;;;;;;4990591;28;20098;-68
2021/10/03 09:54:57;;;;;;;16.13;8.63;;;10.30;99.90;;;;;;4990340;28;20137;-68
2021/10/03 09:57:23;;;;;;;14.40;7.82;;;10.30;99.90;;;;;;4990536;28;20117;-68
2021/10/03 09:59:49;;;;;;;11.05;8.15;;;10.30;99.90;;;;;;4990637;28;20069;-68
2021/10/03 10:02:16;;;;;;;13.98;8.10;;;10.20;99.90;;;;;;4990791;28;20056;-68
2021/10/03 10:04:43;;;;;;;15.45;8.93;;;10.30;99.90;;;;;;4990627;28;20038;-68
2021/10/03 10:07:09;;;;;;;17.40;8.00;;;10.30;99.90;;;;;;4990796;28;20034;-68
2021/10/03 10:09:36;;;;;;;13.95;8.23;;;10.30;99.90;;;;;;4990481;28;20018;-68
2021/10/03 10:12:11;;;;;;;10.85;7.55;;;10.30;99.90;;;;;;4990130;28;20109;-68
2021/10/03 10:14:39;;;;;;;11.93;7.88;;;10.30;99.90;;;;;;4990413;28;20037;-68
2021/10/03 10:17:26;;;;;;;10.60;8.07;;;10.30;99.90;;;;;;4988690;28;20057;-68
2021/10/03 10:19:55;;;;;;;13.27;7.55;;;10.30;99.90;;;;;;4989473;28;20032;-68
2021/10/03 10:22:24;;;;;;;15.00;8.20;;;10.30;99.90;;;;;;4990124;28;20037;-68
2021/10/03 10:24:53;;;;;;;10.68;7.28;;;10.30;99.90;;;;;;4990259;28;20034;-68
2021/10/03 10:27:19;;;;;;;12.32;7.53;;;10.30;99.90;;;;;;4990310;28;20034;-68
2021/10/03 10:29:48;;;;;;;12.90;8.70;;;10.30;99.90;;;;;;4990243;28;20098;-68
2021/10/03 10:32:14;;;;;;;13.20;7.47;;;10.30;99.90;;;;;;4990321;28;20466;-68
2021/10/03 10:35:08;;;;;;;12.77;7.68;;;10.40;99.90;;;;;;4990059;28;20041;-68
2021/10/03 10:37:48;;;;;;;11.38;8.13;;;10.40;99.90;;;;;;4989890;28;20068;-68
2021/10/03 10:40:23;;;;;;;13.00;7.93;;;10.40;99.90;;;;;;4990248;28;20034;-68
2021/10/03 10:43:04;;;;;;;11.82;8.15;;;10.40;99.90;;;;;;4990043;28;20035;-68
2021/10/03 10:46:02;;;;;;;13.60;9.75;;;10.40;99.90;;;;;;4989728;28;20038;-68
2021/10/03 10:48:21;;;;;;;11.55;8.45;;;10.40;99.90;;;;;;4988686;28;20438;-68
2021/10/03 10:50:50;;;;;;;15.32;8.35;;;10.30;99.90;;;;;;4989680;28;20514;-68
2021/10/03 10:53:32;;;;;;;10.52;8.27;;;10.30;99.90;;;;;;4990072;28;20031;-68
2021/10/03 10:56:16;;;;;;;15.82;8.73;;;10.30;99.90;;;;;;4989460;28;20058;-68
2021/10/03 10:58:50;;;;;;;11.57;8.45;;;10.30;99.90;;;;;;4989728;28;20023;-68
2021/10/03 11:01:29;;;;;;;13.80;8.52;;;10.30;99.90;;;;;;4989547;28;20023;-68
2021/10/03 11:03:55;;;;;;;17.63;8.75;;;10.30;99.90;;;;;;4989567;28;20413;-68
2021/10/03 11:06:21;;;;;;;16.80;9.40;;;10.40;99.90;;;;;;4989590;28;20031;-68
2021/10/03 11:09:06;;;;;;;13.55;8.10;;;10.40;99.90;;;;;;4989738;28;20026;-68
2021/10/03 11:11:34;;;;;;;14.70;9.05;;;10.40;99.90;;;;;;4989505;28;20026;-68
2021/10/03 11:14:01;;;;;;;11.07;8.07;;;10.30;99.90;;;;;;4989727;28;20037;-68
2021/10/03 11:16:30;;;;;;;12.38;8.00;;;10.40;99.90;;;;;;4989266;28;20023;-68
2021/10/03 11:19:10;;;;;;;14.43;8.60;;;10.40;99.90;;;;;;4989494;28;20382;-68
2021/10/03 11:21:36;;;;;;;;;;;10.40;99.90;;;;;;4990016;28;20026;-68
2021/10/03 11:24:05;;;;;;;12.57;9.00;;;10.40;99.90;;;;;;4989759;28;19906;-68
2021/10/03 11:26:50;;;;;;;16.63;8.70;;;10.40;99.90;;;;;;4989374;28;20060;-68
2021/10/03 11:29:17;;;;;;;14.55;8.52;;;10.40;99.90;;;;;;4988347;28;20080;-68
2021/10/03 11:31:49;;;;;;;12.90;9.73;;;10.40;99.90;;;;;;4991896;28;20510;-68
2021/10/03 11:34:27;;;;;;;14.98;9.27;;;10.40;99.90;;;;;;4992941;28;20034;-68
2021/10/03 11:36:53;;;;;;;13.20;8.90;;;10.50;99.90;;;;;;4992528;28;20022;-68
2021/10/03 11:39:38;;;;;;;18.70;10.43;;;10.50;99.90;;;;;;4992702;28;20498;-68
2021/10/03 11:42:08;;;;;;;15.93;8.80;;;10.40;99.90;;;;;;4991198;28;20022;-68
2021/10/03 11:44:35;;;;;;;14.90;9.23;;;10.50;99.90;;;;;;4992423;28;20512;-68
2021/10/03 11:47:05;;;;;;;15.73;8.57;;;10.50;99.90;;;;;;4992516;28;20049;-68
2021/10/03 11:49:32;;;;;;;;;;;10.40;99.90;;;;;;4993010;28;20446;-68
2021/10/03 11:51:58;;;;;;;10.00;7.72;;;10.50;99.90;;;;;;4992541;28;19971;-68
2021/10/03 11:54:37;;;;;;;12.48;8.60;;;10.50;99.90;;;;;;4992491;28;20082;-68
2021/10/03 11:57:29;;;;;;;13.93;8.60;;;10.50;99.90;;;;;;4990881;28;20486;-68
2021/10/03 12:00:11;;;;;;;14.80;8.63;;;10.50;99.90;;;;;;4992220;28;20026;-68
2021/10/03 12:02:45;;;;;;;11.18;8.10;;;10.50;99.90;;;;;;4992265;28;20023;-68
2021/10/03 12:05:15;;;;;;;11.93;7.78;;;10.50;99.90;;;;;;4992133;28;20045;-68
2021/10/03 12:07:41;;;;;;;;;;;10.60;99.90;;;;;;4992874;28;20023;-68
2021/10/03 12:10:13;;;;;;;12.95;8.65;;;10.60;99.90;;;;;;4992142;28;19936;-68
2021/10/03 12:12:54;;;;;;;15.13;8.93;;;10.50;99.90;;;;;;4992132;28;20029;-68
2021/10/03 12:15:51;;;;;;;15.13;8.63;;;10.60;99.90;;;;;;4992315;28;20030;-68
2021/10/03 12:18:29;;;;;;;14.15;9.52;;;10.60;99.90;;;;;;4976556;28;20030;-68
2021/10/03 12:21:13;;;;;;;11.85;8.52;;;10.60;99.90;;;;;;4991865;28;20109;-68
2021/10/03 12:23:42;;;;;;;12.95;8.30;;;10.60;99.90;;;;;;4992290;28;20035;-68
2021/10/03 12:26:30;;;;;;;13.63;8.50;;;10.60;99.90;;;;;;4991665;28;20409;-68
2021/10/03 12:29:02;;;;;;;12.82;8.15;;;10.60;99.90;;;;;;4978037;28;20035;-68
2021/10/03 12:31:40;;;;;;;17.63;9.93;;;10.60;99.90;;;;;;4991861;28;20030;-68
2021/10/03 12:34:27;;;;;;;15.35;8.38;;;10.60;99.90;;;;;;4991921;28;20034;-68
2021/10/03 12:36:55;;;;;;;15.45;8.35;;;10.70;99.90;;;;;;4991177;28;20034;-68
2021/10/03 12:39:30;;;;;;;14.65;8.52;;;10.70;99.90;;;;;;4991868;28;20023;-68
2021/10/03 12:42:03;;;;;;;15.50;9.25;;;10.70;99.90;;;;;;4991065;28;20504;-68
2021/10/03 12:44:33;;;;;;;11.02;7.88;;;10.70;99.90;;;;;;4992099;28;20031;-68
2021/10/03 12:46:59;;;;;;;;;;;10.70;99.90;;;;;;4992066;28;20041;-68
2021/10/03 12:49:25;;;;;;;10.77;8.05;;;10.70;99.90;;;;;;4991733;28;19905;-68
2021/10/03 12:51:51;;;;;;;15.45;8.25;;;10.70;99.90;;;;;;4990273;28;20026;-68
2021/10/03 12:54:16;;;;;;;10.90;7.55;;;10.70;99.90;;;;;;4991446;28;20054;-68
2021/10/03 12:56:42;;;;;;;13.73;7.88;;;10.70;99.90;;;;;;4991402;28;20027;-68
2021/10/03 12:59:08;;;;;;;11.88;7.70;;;10.70;99.90;;;;;;4991240;28;20034;-68
2021/10/03 13:01:34;;;;;;;13.85;6.97;;;10.80;99.90;;;;;;4991625;28;20029;-68
2021/10/03 13:04:00;;;;;;;14.50;7.72;;;10.80;99.90;;;;;;4991511;28;20070;-68
2021/10/03 13:06:26;;;;;;;10.82;7.63;;;10.80;99.90;;;;;;4991209;28;20034;-68
2021/10/03 13:08:54;;;;;;;12.75;7.28;;;10.80;99.90;;;;;;4991137;28;20031;-68
2021/10/03 13:11:21;;;;;;;10.73;6.82;;;10.80;99.90;;;;;;4991393;28;20034;-68
2021/10/03 13:13:48;;;;;;;20.00;7.43;;;10.90;99.90;;;;;;4991188;28;20087;-66
2021/10/03 13:16:15;;;;;;;11.13;7.60;;;10.90;99.90;;;;;;4991119;28;20367;-66
2021/10/03 13:18:41;;;;;;;14.88;7.50;;;11.00;99.90;;;;;;4991371;28;20415;-67